Nearby METAR Reports

 

KMLI - Moline/Quad City, Illinois, USA
Distance from station: ENE 4mi, 7km
Updated: 08/24/2019 3:52am
Clear
Clear
 Wind from E
Wind: E 5 mph , 7 km/h
Temperature: 55°F , 13°C
Dew Point: 52°F , 11°C
Humidity: 88%
Barometer: 30.24 inHg , 1024 hPa
Clouds: Clear
Visibility: 10 miles , 16 km
2019/08/24 08:52 KMLI 240852Z AUTO 10004KT 10SM CLR 13/11 A3024 RMK AO2 SLP238 T01280111 50001
KDVN - Davenport/Quad C, Iowa, USA
Distance from station: N 14mi, 22km
Updated: 08/24/2019 3:52am
Clear
Clear
 Wind from ENE
Wind: ENE 6 mph , 9 km/h
Temperature: 54°F , 12°C
Dew Point: 52°F , 11°C
Humidity: 94%
Barometer: 30.26 inHg , 1024.7 hPa
Clouds: Clear
Visibility: 10 miles , 16 km
2019/08/24 08:52 KDVN 240852Z AUTO 07005KT 10SM CLR 12/11 A3026 RMK AO2 SLP242 T01220106 51003
 
KMUT - Muscatine, Iowa, USA
Distance from station: W 29mi, 47km
Updated: 08/24/2019 3:55am
Clear
Clear
 Wind from calm
Wind: Calm
Temperature: 59°F , 15°C
Dew Point: 54°F , 12°C
Humidity: 82%
Barometer: 30.23 inHg , 1023.7 hPa
Clouds: Clear
Visibility: 10 miles , 16 km
2019/08/24 08:55 KMUT 240855Z AUTO 00000KT 10SM CLR 15/12 A3023 RMK AO2
KCWI - Clinton Muni, Iowa, USA
Distance from station: NNE 31mi, 50km
Updated: 08/24/2019 3:56am
Clear
Clear
 Wind from ENE
Wind: ENE 7 mph , 11 km/h
Temperature: 54°F , 12°C
Dew Point: 54°F , 12°C
Humidity: 100%
Barometer: 30.26 inHg , 1024.7 hPa
Clouds: Clear
Visibility: 10 miles , 16 km
2019/08/24 08:56 KCWI 240856Z AUTO 06006KT 10SM CLR 12/12 A3026 RMK AO2 SLP250 T01220117 51006
 
KGBG - Galesburg, Illinois, USA
Distance from station: SSE 35mi, 56km
Updated: 08/24/2019 3:55am
Clear
Clear
 Wind from ENE
Wind: ENE 6 mph , 9 km/h
Temperature: 57°F , 14°C
Dew Point: 54°F , 12°C
Humidity: 88%
Barometer: 30.24 inHg , 1024 hPa
Clouds: Clear
Visibility: 10 miles , 16 km
2019/08/24 08:55 KGBG 240855Z AUTO 06005KT 10SM CLR 14/12 A3024 RMK AO2 T01370116
KSFY - Savanna/Tritown, Illinois, USA
Distance from station: NNE 50mi, 80km
Updated: 08/24/2019 3:55am
Clear
Clear
 Wind from calm
Wind: Calm
Temperature: 54°F , 12°C
Dew Point: 52°F , 11°C
Humidity: 94%
Barometer: 30.26 inHg , 1024.7 hPa
Clouds: Clear
Visibility: 10 miles , 16 km
2019/08/24 08:55 KSFY 240855Z AUTO 00000KT 10SM CLR 12/11 A3026 RMK AO2